Crane — ZR3519 — position and weather

sailwx.info

Track history (hours):
 
Tides and Currents Weather Stations Pressure Air Temp Water Temp Dewpoint Dewpoint Depression Visibility Wind Speed Wind Dir Waves Ship Positions

Crane

Last reported at 2016-Aug-27 04:04 UTC. Time now 2016-Aug-27 06:25 UTC.
Position S 29°53' E 030°60'.

MMSI: 601085000.

Date/timePositionNaut miles runAvg speedWind from/ knotsBaromVisibWave heightAir tempDewpointWater temp
2016-Aug-27 04:04S 29°53' E 030°60'2 3.7
2016-Aug-27 03:33S 29°52' E 031°02'4 3.7
2016-Aug-27 02:33S 29°52' E 031°06'5 0.7
2016-Aug-26 18:33S 29°53' E 030°60'5 5.4
2016-Aug-26 17:33S 29°53' E 031°06'2 2.2
2016-Aug-26 16:33S 29°52' E 031°04'3 2.7
2016-Aug-26 15:33S 29°52' E 031°01'1 0.1
2016-Aug-26 03:33S 29°53' E 031°00'6 5.6
2016-Aug-26 02:33S 29°53' E 031°07'5 4.6
2016-Aug-26 01:33S 29°52' E 031°02'2 0.4
2016-Aug-25 21:22S 29°53' E 030°60'1 1.3
2016-Aug-25 20:33S 29°52' E 031°01'5 5.2
2016-Aug-25 19:34S 29°53' E 031°06'1 0.6
2016-Aug-25 18:33S 29°53' E 031°07'5 4.9
2016-Aug-25 17:33S 29°52' E 031°02'2 0.2
2016-Aug-25 07:20S 29°53' E 030°60'3 3.7
2016-Aug-25 06:33S 29°53' E 031°03'3 1.4
2016-Aug-25 04:33S 29°53' E 030°60'0 0.0
2016-Aug-25 00:09S 29°53' E 030°60'2 2.6
2016-Aug-24 23:33S 29°52' E 031°01'5 5.2
2016-Aug-24 22:33S 29°54' E 031°07'6 0.6
2016-Aug-24 12:27S 29°53' E 030°60'2 2.5
2016-Aug-24 11:33S 29°52' E 031°02'2 2.3
2016-Aug-24 10:34S 29°52' E 031°05'4 0.5
2016-Aug-24 01:33S 29°53' E 030°60'5 4.5
2016-Aug-24 00:33S 29°52' E 031°05'1 0.5
2016-Aug-23 23:33S 29°52' E 031°04'4 4.1
2016-Aug-23 22:33S 29°53' E 030°60'0 0.0
2016-Aug-23 08:33S 29°53' E 030°60'0 0.1
2016-Aug-23 07:33S 29°53' E 030°60'4 4.4
2016-Aug-23 06:33S 29°52' E 031°05'1 1.1
2016-Aug-23 05:33S 29°52' E 031°03'2 0.6
2016-Aug-23 01:33S 29°52' E 031°01'0 0.0
2016-Aug-21 03:33S 29°52' E 031°01'3 3.3
2016-Aug-21 02:34S 29°52' E 031°05'1 1.2
2016-Aug-21 01:34S 29°52' E 031°03'3 3.0
2016-Aug-21 00:33S 29°53' E 030°60'0 0.0
2016-Aug-20 23:32S 29°53' E 030°60'0 0.0
2016-Aug-20 22:33S 29°53' E 030°60'0 0.0
2016-Aug-20 21:33S 29°53' E 030°60'0 0.0
2016-Aug-20 20:34S 29°53' E 030°60'0 0.0
2016-Aug-20 19:33S 29°53' E 030°60'0 0.0
2016-Aug-20 18:33S 29°53' E 030°60'0 0.0
2016-Aug-20 17:33S 29°53' E 030°60'1 1.3
2016-Aug-20 16:34S 29°52' E 031°01'0 0.0
2016-Aug-20 15:34S 29°52' E 031°01'3 3.1
2016-Aug-20 14:33S 29°52' E 031°04'1 1.2
2016-Aug-20 13:34S 29°53' E 031°05'4 0.7
2016-Aug-20 07:33S 29°53' E 031°01'5 4.6
2016-Aug-20 06:33S 29°52' E 031°06'3 2.5
2016-Aug-20 05:33S 29°52' E 031°03'3 2.5
2016-Aug-20 04:33S 29°53' E 031°00'1 0.1
2016-Aug-19 11:16S 29°52' E 031°01'0 0.0
2016-Aug-19 10:33S 29°52' E 031°01'3 3.2
2016-Aug-19 09:33S 29°51' E 031°04'2 1.9
2016-Aug-19 08:33S 29°52' E 031°06'1 1.1
2016-Aug-19 07:33S 29°52' E 031°08'6 6.2
2016-Aug-19 06:33S 29°52' E 031°01'1 0.0
2016-Aug-18 11:05S 29°53' E 031°00'0 0.1
2016-Aug-18 10:34S 29°53' E 031°00'4 3.8
2016-Aug-18 09:34S 29°52' E 031°04'1 0.5
2016-Aug-18 08:34S 29°52' E 031°04'3 2.9
2016-Aug-18 07:34S 29°53' E 031°00'0 0.4
2016-Aug-18 06:34S 29°53' E 031°00'1 0.1
2016-Aug-17 13:33S 29°52' E 031°01'2 1.7
2016-Aug-17 12:33S 29°52' E 031°03'2 2.2
2016-Aug-17 11:33S 29°53' E 031°05'  
Track history (hours):
 
Tides and Currents Weather Stations Pressure Air Temp Water Temp Dewpoint Dewpoint Depression Visibility Wind Speed Wind Dir Waves Ship Positions

Crane

Last reported at 2016-Aug-27 04:04 UTC. Time now 2016-Aug-27 06:25 UTC.
Position S 29°53' E 030°60'.

MMSI: 601085000.

Date/timePositionNaut miles runAvg speedWind from/ knotsBaromVisibWave heightAir tempDewpointWater temp
2016-Aug-27 04:04S 29°53' E 030°60'2 3.7
2016-Aug-27 03:33S 29°52' E 031°02'4 3.7
2016-Aug-27 02:33S 29°52' E 031°06'5 0.7
2016-Aug-26 18:33S 29°53' E 030°60'5 5.4
2016-Aug-26 17:33S 29°53' E 031°06'2 2.2
2016-Aug-26 16:33S 29°52' E 031°04'3 2.7
2016-Aug-26 15:33S 29°52' E 031°01'1 0.1
2016-Aug-26 03:33S 29°53' E 031°00'6 5.6
2016-Aug-26 02:33S 29°53' E 031°07'5 4.6
2016-Aug-26 01:33S 29°52' E 031°02'2 0.4
2016-Aug-25 21:22S 29°53' E 030°60'1 1.3
2016-Aug-25 20:33S 29°52' E 031°01'5 5.2
2016-Aug-25 19:34S 29°53' E 031°06'1 0.6
2016-Aug-25 18:33S 29°53' E 031°07'5 4.9
2016-Aug-25 17:33S 29°52' E 031°02'2 0.2
2016-Aug-25 07:20S 29°53' E 030°60'3 3.7
2016-Aug-25 06:33S 29°53' E 031°03'3 1.4
2016-Aug-25 04:33S 29°53' E 030°60'0 0.0
2016-Aug-25 00:09S 29°53' E 030°60'2 2.6
2016-Aug-24 23:33S 29°52' E 031°01'5 5.2
2016-Aug-24 22:33S 29°54' E 031°07'6 0.6
2016-Aug-24 12:27S 29°53' E 030°60'2 2.5
2016-Aug-24 11:33S 29°52' E 031°02'2 2.3
2016-Aug-24 10:34S 29°52' E 031°05'4 0.5
2016-Aug-24 01:33S 29°53' E 030°60'5 4.5
2016-Aug-24 00:33S 29°52' E 031°05'1 0.5
2016-Aug-23 23:33S 29°52' E 031°04'4 4.1
2016-Aug-23 22:33S 29°53' E 030°60'0 0.0
2016-Aug-23 08:33S 29°53' E 030°60'0 0.1
2016-Aug-23 07:33S 29°53' E 030°60'4 4.4
2016-Aug-23 06:33S 29°52' E 031°05'1 1.1
2016-Aug-23 05:33S 29°52' E 031°03'2 0.6
2016-Aug-23 01:33S 29°52' E 031°01'0 0.0
2016-Aug-21 03:33S 29°52' E 031°01'3 3.3
2016-Aug-21 02:34S 29°52' E 031°05'1 1.2
2016-Aug-21 01:34S 29°52' E 031°03'3 3.0
2016-Aug-21 00:33S 29°53' E 030°60'0 0.0
2016-Aug-20 23:32S 29°53' E 030°60'0 0.0
2016-Aug-20 22:33S 29°53' E 030°60'0 0.0
2016-Aug-20 21:33S 29°53' E 030°60'0 0.0
2016-Aug-20 20:34S 29°53' E 030°60'0 0.0
2016-Aug-20 19:33S 29°53' E 030°60'0 0.0
2016-Aug-20 18:33S 29°53' E 030°60'0 0.0
2016-Aug-20 17:33S 29°53' E 030°60'1 1.3
2016-Aug-20 16:34S 29°52' E 031°01'0 0.0
2016-Aug-20 15:34S 29°52' E 031°01'3 3.1
2016-Aug-20 14:33S 29°52' E 031°04'1 1.2
2016-Aug-20 13:34S 29°53' E 031°05'4 0.7
2016-Aug-20 07:33S 29°53' E 031°01'5 4.6
2016-Aug-20 06:33S 29°52' E 031°06'3 2.5
2016-Aug-20 05:33S 29°52' E 031°03'3 2.5
2016-Aug-20 04:33S 29°53' E 031°00'1 0.1
2016-Aug-19 11:16S 29°52' E 031°01'0 0.0
2016-Aug-19 10:33S 29°52' E 031°01'3 3.2
2016-Aug-19 09:33S 29°51' E 031°04'2 1.9
2016-Aug-19 08:33S 29°52' E 031°06'1 1.1
2016-Aug-19 07:33S 29°52' E 031°08'6 6.2
2016-Aug-19 06:33S 29°52' E 031°01'1 0.0
2016-Aug-18 11:05S 29°53' E 031°00'0 0.1
2016-Aug-18 10:34S 29°53' E 031°00'4 3.8
2016-Aug-18 09:34S 29°52' E 031°04'1 0.5
2016-Aug-18 08:34S 29°52' E 031°04'3 2.9
2016-Aug-18 07:34S 29°53' E 031°00'0 0.4
2016-Aug-18 06:34S 29°53' E 031°00'1 0.1
2016-Aug-17 13:33S 29°52' E 031°01'2 1.7
2016-Aug-17 12:33S 29°52' E 031°03'2 2.2
2016-Aug-17 11:33S 29°53' E 031°05'  

Dump ship's entire track history